createdAt,value
2023-06-04T00:01:51.992Z,7.71
2023-06-04T00:04:19.677Z,7.68
2023-06-04T00:06:47.343Z,7.60
2023-06-04T00:09:15.163Z,7.30
2023-06-04T00:11:42.957Z,7.19
2023-06-04T00:14:12.127Z,7.12
2023-06-04T00:16:39.828Z,7.17
2023-06-04T00:19:07.503Z,6.97
2023-06-04T00:21:35.075Z,6.92
2023-06-04T00:24:02.922Z,7.10
2023-06-04T00:26:30.645Z,7.08
2023-06-04T00:28:58.593Z,6.92
2023-06-04T00:31:28.153Z,7.10
2023-06-04T00:33:55.804Z,7.11
2023-06-04T00:36:23.522Z,7.05
2023-06-04T00:38:51.186Z,7.02
2023-06-04T00:41:18.839Z,6.97
2023-06-04T00:43:46.906Z,6.98
2023-06-04T00:46:18.964Z,6.97
2023-06-04T00:48:48.210Z,6.99
2023-06-04T00:51:16.063Z,6.67
2023-06-04T00:53:45.574Z,6.60
2023-06-04T00:56:13.968Z,6.87
2023-06-04T00:58:41.743Z,6.77
2023-06-04T01:01:10.218Z,6.52
2023-06-04T01:03:38.120Z,6.57
2023-06-04T01:06:10.195Z,6.56
2023-06-04T01:08:38.041Z,6.28
2023-06-04T01:11:06.023Z,6.31
2023-06-04T01:13:33.903Z,6.10
2023-06-04T01:16:02.961Z,6.14
2023-06-04T01:18:30.721Z,6.19
2023-06-04T01:20:59.787Z,6.15
2023-06-04T01:23:34.852Z,6.26
2023-06-04T01:26:04.515Z,6.38
2023-06-04T01:28:32.619Z,6.48
2023-06-04T01:31:00.813Z,6.37
2023-06-04T01:33:29.402Z,6.52
2023-06-04T01:35:57.020Z,6.28
2023-06-04T01:38:26.697Z,6.31
2023-06-04T01:40:57.405Z,6.67
2023-06-04T01:43:25.276Z,6.46
2023-06-04T01:45:52.950Z,6.34
2023-06-04T01:48:20.534Z,6.93
2023-06-04T01:50:48.137Z,6.70
2023-06-04T01:53:15.934Z,6.35
2023-06-04T01:55:44.131Z,6.19
2023-06-04T01:58:13.074Z,6.01
2023-06-04T02:00:40.930Z,5.88
2023-06-04T02:03:09.867Z,5.92
2023-06-04T02:05:37.929Z,5.92
2023-06-04T02:08:05.931Z,5.94
2023-06-04T02:10:33.755Z,6.23
2023-06-04T02:13:01.787Z,5.93
2023-06-04T02:15:31.603Z,5.97
2023-06-04T02:18:00.689Z,6.76
2023-06-04T02:20:28.422Z,7.45
2023-06-04T02:22:56.093Z,7.57
2023-06-04T02:25:23.997Z,7.59
2023-06-04T02:27:51.693Z,7.61
2023-06-04T02:30:19.446Z,7.38
2023-06-04T02:32:52.770Z,7.78
2023-06-04T02:35:22.351Z,7.76
2023-06-04T02:37:50.155Z,8.02
2023-06-04T02:40:17.863Z,8.14
2023-06-04T02:42:45.531Z,7.94
2023-06-04T02:45:13.282Z,8.11
2023-06-04T02:47:40.939Z,8.13
2023-06-04T02:50:10.590Z,8.01
2023-06-04T02:52:38.870Z,8.02
2023-06-04T02:55:07.958Z,7.95
2023-06-04T02:57:35.939Z,7.88
2023-06-04T03:00:09.304Z,7.64
2023-06-04T03:02:37.585Z,7.98
2023-06-04T03:05:05.403Z,7.68
2023-06-04T03:07:34.349Z,7.33
2023-06-04T03:10:02.796Z,7.15
2023-06-04T03:12:32.073Z,6.98
2023-06-04T03:14:59.675Z,7.49
2023-06-04T03:17:27.877Z,7.67
2023-06-04T03:19:57.123Z,7.59
2023-06-04T03:22:25.034Z,7.79
2023-06-04T03:24:54.356Z,7.74
2023-06-04T03:27:22.108Z,7.53
2023-06-04T03:29:49.939Z,7.63
2023-06-04T03:32:19.103Z,7.96
2023-06-04T03:34:48.345Z,7.78
2023-06-04T03:37:15.944Z,7.70
2023-06-04T03:39:43.590Z,7.39
2023-06-04T03:42:15.676Z,7.46
2023-06-04T03:44:44.216Z,7.72
2023-06-04T03:47:12.563Z,7.81
2023-06-04T03:49:41.914Z,7.44
2023-06-04T03:52:09.818Z,7.45
2023-06-04T03:54:39.412Z,7.49
2023-06-04T03:57:07.243Z,7.61
2023-06-04T03:59:36.237Z,7.51
2023-06-04T04:02:04.152Z,7.49
2023-06-04T04:04:31.893Z,7.59
2023-06-04T04:07:00.768Z,7.46
2023-06-04T04:09:28.894Z,7.49
2023-06-04T04:11:56.929Z,7.52
2023-06-04T04:14:24.768Z,7.41
2023-06-04T04:16:53.918Z,7.58
2023-06-04T04:19:22.057Z,7.61
2023-06-04T04:21:50.340Z,7.91
2023-06-04T04:24:25.639Z,7.94
2023-06-04T04:26:55.051Z,7.93
2023-06-04T04:29:25.762Z,8.17
2023-06-04T04:31:57.386Z,8.16
2023-06-04T04:34:27.448Z,8.24
2023-06-04T04:36:58.081Z,8.28
2023-06-04T04:39:27.384Z,8.22
2023-06-04T04:41:58.053Z,8.54
2023-06-04T04:44:26.031Z,8.74
2023-06-04T04:46:55.820Z,8.86
2023-06-04T04:49:23.463Z,8.89
2023-06-04T04:51:51.215Z,9.05
2023-06-04T04:54:19.459Z,9.18
2023-06-04T04:56:47.998Z,9.24
2023-06-04T04:59:16.504Z,9.16
2023-06-04T05:01:44.214Z,9.44
2023-06-04T05:04:13.287Z,9.50
2023-06-04T05:06:42.409Z,9.59
2023-06-04T05:09:10.181Z,9.63
2023-06-04T05:11:38.290Z,9.64
2023-06-04T05:14:06.696Z,9.92
2023-06-04T05:16:36.516Z,10.06
2023-06-04T05:19:04.830Z,9.97
2023-06-04T05:21:37.852Z,9.93
2023-06-04T05:24:07.720Z,10.25
2023-06-04T05:26:40.756Z,10.44
2023-06-04T05:29:15.333Z,10.78
2023-06-04T05:31:45.040Z,10.93
2023-06-04T05:34:17.494Z,11.23
2023-06-04T05:36:47.376Z,11.12
2023-06-04T05:39:15.594Z,11.31
2023-06-04T05:41:53.051Z,11.40
2023-06-04T05:44:21.160Z,11.48
2023-06-04T05:46:51.839Z,11.66
2023-06-04T05:49:20.856Z,11.80
2023-06-04T05:51:50.326Z,11.98
2023-06-04T05:54:21.690Z,12.11
2023-06-04T05:56:50.526Z,12.33
2023-06-04T05:59:18.253Z,12.32
2023-06-04T06:01:45.876Z,12.49
2023-06-04T06:04:13.756Z,12.42
2023-06-04T06:06:42.130Z,12.42
2023-06-04T06:09:11.162Z,12.64
2023-06-04T06:11:38.832Z,12.66
2023-06-04T06:14:06.500Z,12.59
2023-06-04T06:16:34.517Z,12.90
2023-06-04T06:25:29.139Z,13.12
2023-06-04T06:28:03.077Z,13.37
2023-06-04T06:30:32.198Z,13.63
2023-06-04T06:33:00.015Z,13.67
2023-06-04T06:35:40.812Z,13.50
2023-06-04T06:38:12.298Z,13.52
2023-06-04T06:40:42.383Z,12.97
2023-06-04T06:43:11.151Z,13.48
2023-06-04T06:45:39.020Z,13.54
2023-06-04T06:48:07.220Z,13.81
2023-06-04T06:50:36.751Z,13.92
2023-06-04T06:53:04.731Z,14.12
2023-06-04T06:55:32.582Z,14.43
2023-06-04T06:58:01.879Z,14.59
2023-06-04T07:00:29.939Z,14.76
2023-06-04T07:02:58.059Z,14.57
2023-06-04T07:05:25.982Z,14.93
2023-06-04T07:07:53.879Z,14.58
2023-06-04T07:10:22.045Z,14.96
2023-06-04T07:12:49.881Z,15.23
2023-06-04T07:15:19.952Z,15.33
2023-06-04T07:17:48.106Z,15.64
2023-06-04T07:20:15.965Z,15.62
2023-06-04T07:22:43.946Z,15.68
2023-06-04T07:25:11.732Z,15.81
2023-06-04T07:27:39.662Z,15.71
2023-06-04T07:30:08.850Z,15.59
2023-06-04T07:32:38.160Z,16.19
2023-06-04T07:35:08.339Z,15.67
2023-06-04T07:37:36.220Z,16.30
2023-06-04T07:40:04.837Z,16.10
2023-06-04T07:42:32.690Z,16.48
2023-06-04T07:45:00.463Z,16.28
2023-06-04T07:47:30.546Z,16.56
2023-06-04T07:50:03.116Z,16.78
2023-06-04T07:52:31.656Z,16.98
2023-06-04T07:54:59.660Z,16.64
2023-06-04T07:57:27.573Z,16.81
2023-06-04T07:59:55.624Z,16.97
2023-06-04T08:02:23.567Z,16.89
2023-06-04T08:04:52.146Z,17.26
2023-06-04T08:07:21.593Z,16.88
2023-06-04T08:09:50.578Z,17.10
2023-06-04T08:12:18.476Z,17.51
2023-06-04T08:14:46.420Z,17.61
2023-06-04T08:17:14.292Z,17.39
2023-06-04T08:19:42.154Z,17.45
2023-06-04T08:22:12.413Z,17.65
2023-06-04T08:24:41.785Z,17.73
2023-06-04T08:27:09.700Z,17.76
2023-06-04T08:29:38.186Z,17.69
2023-06-04T08:32:06.934Z,17.40
2023-06-04T08:34:34.840Z,17.57
2023-06-04T08:37:02.680Z,17.43
2023-06-04T08:39:30.505Z,17.55
2023-06-04T08:42:02.004Z,17.56
2023-06-04T08:44:30.097Z,17.50
2023-06-04T08:47:04.448Z,17.66
2023-06-04T08:49:32.794Z,18.32
2023-06-04T08:52:00.704Z,18.09
2023-06-04T08:54:28.630Z,18.50
2023-06-04T08:56:58.298Z,18.30
2023-06-04T08:59:27.526Z,18.24
2023-06-04T09:01:55.646Z,18.14
2023-06-04T09:04:23.500Z,18.56
2023-06-04T09:06:51.480Z,18.49
2023-06-04T09:09:19.421Z,18.38
2023-06-04T09:11:49.020Z,18.58
2023-06-04T09:14:17.640Z,18.65
2023-06-04T09:16:47.797Z,18.71
2023-06-04T09:19:15.902Z,18.66
2023-06-04T09:21:50.682Z,18.45
2023-06-04T09:24:18.544Z,18.58
2023-06-04T09:26:46.304Z,18.83
2023-06-04T09:29:14.247Z,18.85
2023-06-04T09:31:42.092Z,19.43
2023-06-04T09:34:11.517Z,18.76
2023-06-04T09:36:40.218Z,18.93
2023-06-04T09:39:16.697Z,18.70
2023-06-04T09:41:46.325Z,18.98
2023-06-04T09:44:14.312Z,18.44
2023-06-04T09:46:42.284Z,18.92
2023-06-04T09:49:12.744Z,18.84
2023-06-04T09:51:48.514Z,18.98
2023-06-04T09:54:16.542Z,19.04
2023-06-04T09:56:44.726Z,19.32
2023-06-04T09:59:12.625Z,19.16
2023-06-04T10:01:41.654Z,18.73
2023-06-04T10:04:09.962Z,18.91
2023-06-04T10:06:39.309Z,19.08
2023-06-04T10:09:07.722Z,18.87
2023-06-04T10:11:36.859Z,19.22
2023-06-04T10:14:05.590Z,19.49
2023-06-04T10:16:34.957Z,19.45
2023-06-04T10:19:03.282Z,19.69
2023-06-04T10:21:32.879Z,19.39
2023-06-04T10:24:02.164Z,19.66
2023-06-04T10:26:31.262Z,19.98
2023-06-04T10:28:59.179Z,19.17
2023-06-04T10:31:27.444Z,19.43
2023-06-04T10:33:56.203Z,19.47
2023-06-04T10:36:24.393Z,19.57
2023-06-04T10:38:54.968Z,19.78
2023-06-04T10:41:26.290Z,19.92
2023-06-04T10:43:54.480Z,20.25
2023-06-04T10:46:25.837Z,19.43
2023-06-04T10:48:57.431Z,20.13
2023-06-04T10:51:31.816Z,19.97
2023-06-04T10:53:59.703Z,20.02
2023-06-04T10:56:29.505Z,19.18
2023-06-04T10:58:57.461Z,19.86
2023-06-04T11:01:26.039Z,20.06
2023-06-04T11:03:54.062Z,20.21
2023-06-04T11:06:22.355Z,20.38
2023-06-04T11:08:50.761Z,20.30
2023-06-04T11:11:18.743Z,20.01
2023-06-04T11:17:41.846Z,20.10
2023-06-04T11:20:17.900Z,20.17
2023-06-04T11:22:46.365Z,20.75
2023-06-04T11:25:14.235Z,20.67
2023-06-04T11:27:42.086Z,20.27
2023-06-04T11:30:10.721Z,20.71
2023-06-04T11:32:38.664Z,20.18
2023-06-04T11:35:08.478Z,20.52
2023-06-04T11:37:36.641Z,20.57
2023-06-04T11:40:06.635Z,20.16
2023-06-04T11:42:34.542Z,20.69
2023-06-04T11:45:02.467Z,20.68
2023-06-04T11:47:30.445Z,21.19
2023-06-04T11:49:58.343Z,21.25
2023-06-04T11:52:28.213Z,20.39
2023-06-04T11:54:55.943Z,20.56
2023-06-04T11:57:23.808Z,20.75
2023-06-04T11:59:51.739Z,20.42
2023-06-04T12:02:23.401Z,20.47
2023-06-04T12:04:52.330Z,20.39
2023-06-04T12:07:22.228Z,20.59
2023-06-04T12:09:51.496Z,20.74
2023-06-04T12:12:23.717Z,20.82
2023-06-04T12:14:58.285Z,20.64
2023-06-04T12:17:26.191Z,21.14
2023-06-04T12:19:54.169Z,21.22
2023-06-04T12:22:22.235Z,21.28
2023-06-04T12:24:54.622Z,21.61
2023-06-04T12:27:24.378Z,20.99
2023-06-04T12:30:01.892Z,21.20
2023-06-04T12:32:29.911Z,20.83
2023-06-04T12:34:57.768Z,21.10
2023-06-04T12:37:26.754Z,20.91
2023-06-04T12:39:56.385Z,20.83
2023-06-04T12:42:24.809Z,21.05
2023-06-04T12:44:52.709Z,21.04
2023-06-04T12:47:22.478Z,21.35
2023-06-04T12:49:50.599Z,21.32
2023-06-04T12:52:18.630Z,21.39
2023-06-04T12:54:46.612Z,20.69
2023-06-04T12:57:16.011Z,21.25
2023-06-04T12:59:43.960Z,20.95
2023-06-04T13:02:12.229Z,21.06
2023-06-04T13:04:40.220Z,21.14
2023-06-04T13:07:08.122Z,20.65
2023-06-04T13:09:36.301Z,20.72
2023-06-04T13:12:04.925Z,20.79
2023-06-04T13:14:35.122Z,20.23
2023-06-04T13:17:14.101Z,20.73
2023-06-04T13:19:49.670Z,20.85
2023-06-04T13:22:17.509Z,20.94
2023-06-04T13:24:45.420Z,21.02
2023-06-04T13:27:13.266Z,21.02
2023-06-04T13:29:44.565Z,20.85
2023-06-04T13:32:13.053Z,21.23
2023-06-04T13:34:41.210Z,21.14
2023-06-04T13:37:12.098Z,21.04
2023-06-04T13:39:40.279Z,20.84
2023-06-04T13:42:08.576Z,21.17
2023-06-04T13:44:36.564Z,21.04
2023-06-04T13:47:06.194Z,21.27
2023-06-04T13:49:34.602Z,21.12
2023-06-04T13:52:02.461Z,21.61
2023-06-04T13:54:30.335Z,21.41
2023-06-04T13:56:58.235Z,21.53
2023-06-04T13:59:26.173Z,21.45
2023-06-04T14:01:54.315Z,21.21
2023-06-04T14:04:23.633Z,21.63
2023-06-04T14:06:51.516Z,21.24
2023-06-04T14:09:19.364Z,21.09
2023-06-04T14:11:51.613Z,20.81
2023-06-04T14:14:19.766Z,21.15
2023-06-04T14:16:47.624Z,21.13
2023-06-04T14:19:16.015Z,21.22
2023-06-04T14:21:45.561Z,21.15
2023-06-04T14:24:13.447Z,21.03
2023-06-04T14:26:41.520Z,20.87
2023-06-04T14:29:09.358Z,20.97
2023-06-04T14:31:37.252Z,21.37
2023-06-04T14:34:05.137Z,21.06
2023-06-04T14:36:32.959Z,21.11
2023-06-04T14:39:02.244Z,21.10
2023-06-04T14:41:30.110Z,21.33
2023-06-04T14:43:57.901Z,21.25
2023-06-04T14:46:26.591Z,21.57
2023-06-04T14:48:54.537Z,21.19
2023-06-04T14:51:22.787Z,21.23
2023-06-04T14:53:50.662Z,21.35
2023-06-04T14:56:20.201Z,21.17
2023-06-04T14:58:48.013Z,21.46
2023-06-04T15:01:17.439Z,21.21
2023-06-04T15:03:45.386Z,21.04
2023-06-04T15:06:19.322Z,21.22
2023-06-04T15:08:48.140Z,21.21
2023-06-04T15:11:16.219Z,21.23
2023-06-04T15:13:45.921Z,21.35
2023-06-04T15:16:14.037Z,21.37
2023-06-04T15:18:42.281Z,21.41
2023-06-04T15:21:10.778Z,21.50
2023-06-04T15:23:38.906Z,21.37
2023-06-04T15:26:06.833Z,21.26
2023-06-04T15:28:34.691Z,21.09
2023-06-04T15:31:04.058Z,21.06
2023-06-04T15:33:31.910Z,21.04
2023-06-04T15:36:00.060Z,21.44
2023-06-04T15:38:30.661Z,21.38
2023-06-04T15:40:59.813Z,20.93
2023-06-04T15:43:27.742Z,21.07
2023-06-04T15:45:55.668Z,21.41
2023-06-04T15:48:27.577Z,21.20
2023-06-04T15:50:55.419Z,21.13
2023-06-04T15:53:24.085Z,20.99
2023-06-04T15:55:52.201Z,20.86
2023-06-04T15:58:20.076Z,20.93
2023-06-04T16:00:47.844Z,21.16
2023-06-04T16:03:15.659Z,21.22
2023-06-04T16:05:45.112Z,21.20
2023-06-04T16:08:13.169Z,20.87
2023-06-04T16:10:42.349Z,20.94
2023-06-04T16:13:10.203Z,20.94
2023-06-04T16:15:38.158Z,21.16
2023-06-04T16:18:06.271Z,20.73
2023-06-04T16:20:34.257Z,20.96
2023-06-04T16:23:03.508Z,21.22
2023-06-04T16:25:31.686Z,20.96
2023-06-04T16:28:00.025Z,20.87
2023-06-04T16:30:29.490Z,20.67
2023-06-04T16:32:58.616Z,20.55
2023-06-04T16:35:26.488Z,20.71
2023-06-04T16:37:54.339Z,20.59
2023-06-04T16:40:23.582Z,20.79
2023-06-04T16:42:51.785Z,20.79
2023-06-04T16:45:19.711Z,20.68
2023-06-04T16:47:49.213Z,20.59
2023-06-04T16:50:17.414Z,20.51
2023-06-04T16:52:45.240Z,20.71
2023-06-04T16:55:13.134Z,20.47
2023-06-04T16:57:42.414Z,20.42
2023-06-04T17:00:25.554Z,20.42
2023-06-04T17:02:54.778Z,20.32
2023-06-04T17:05:25.311Z,20.17
2023-06-04T17:07:53.809Z,20.07
2023-06-04T17:10:21.625Z,20.06
2023-06-04T17:12:51.084Z,19.96
2023-06-04T17:15:18.923Z,20.05
2023-06-04T17:17:49.200Z,20.10
2023-06-04T17:20:18.937Z,19.98
2023-06-04T17:22:46.760Z,19.75
2023-06-04T17:25:14.680Z,19.79
2023-06-04T17:27:42.479Z,19.85
2023-06-04T17:30:12.484Z,19.66
2023-06-04T17:32:40.381Z,19.72
2023-06-04T17:35:10.548Z,19.67
2023-06-04T17:37:38.401Z,19.72
2023-06-04T17:40:06.889Z,19.61
2023-06-04T17:42:34.860Z,19.45
2023-06-04T17:45:05.210Z,19.47
2023-06-04T17:47:34.585Z,19.36
2023-06-04T17:50:07.879Z,19.27
2023-06-04T17:52:36.069Z,19.23
2023-06-04T17:55:04.060Z,19.16
2023-06-04T17:57:32.391Z,19.16
2023-06-04T18:00:00.322Z,19.08
2023-06-04T18:02:28.330Z,19.21
2023-06-04T18:04:57.696Z,18.97
2023-06-04T18:07:25.600Z,18.95
2023-06-04T18:09:53.751Z,18.73
2023-06-04T18:12:21.673Z,18.66
2023-06-04T18:14:49.920Z,18.65
2023-06-04T18:17:17.883Z,18.62
2023-06-04T18:19:46.307Z,18.42
2023-06-04T18:22:15.740Z,18.39
2023-06-04T18:24:43.671Z,18.40
2023-06-04T18:27:11.803Z,18.30
2023-06-04T18:29:39.919Z,18.17
2023-06-04T18:32:08.062Z,17.97
2023-06-04T18:34:35.992Z,17.82
2023-06-04T18:37:03.896Z,17.72
2023-06-04T18:39:33.306Z,17.68
2023-06-04T18:42:02.241Z,17.51
2023-06-04T18:44:30.080Z,17.15
2023-06-04T18:46:58.062Z,17.10
2023-06-04T18:49:26.107Z,16.78
2023-06-04T18:51:54.153Z,16.33
2023-06-04T18:54:22.068Z,16.41
2023-06-04T18:56:51.424Z,16.02
2023-06-04T18:59:19.558Z,16.10
2023-06-04T19:01:47.647Z,16.08
2023-06-04T19:04:15.744Z,16.20
2023-06-04T19:06:43.665Z,16.40
2023-06-04T19:09:11.540Z,16.39
2023-06-04T19:11:40.692Z,16.25
2023-06-04T19:14:11.165Z,16.28
2023-06-04T19:16:39.215Z,16.14
2023-06-04T19:19:09.936Z,15.92
2023-06-04T19:21:38.049Z,16.21
2023-06-04T19:24:06.360Z,16.26
2023-06-04T19:26:34.957Z,16.26
2023-06-04T19:29:02.859Z,16.29
2023-06-04T19:31:32.200Z,16.06
2023-06-04T19:34:00.866Z,16.14
2023-06-04T19:36:28.755Z,16.04
2023-06-04T19:38:57.067Z,15.87
2023-06-04T19:41:24.949Z,16.11
2023-06-04T19:43:52.766Z,16.39
2023-06-04T19:46:20.636Z,16.67
2023-06-04T19:48:49.849Z,16.85
2023-06-04T19:51:17.705Z,17.07
2023-06-04T19:53:45.505Z,17.01
2023-06-04T19:56:13.359Z,16.87
2023-06-04T19:58:41.721Z,16.51
2023-06-04T20:01:10.230Z,16.38
2023-06-04T20:03:38.537Z,16.11
2023-06-04T20:06:08.601Z,15.98
2023-06-04T20:08:36.667Z,15.87
2023-06-04T20:11:04.620Z,15.38
2023-06-04T20:13:32.890Z,15.60
2023-06-04T20:16:00.708Z,15.61
2023-06-04T20:18:29.990Z,15.53
2023-06-04T20:20:57.925Z,14.74
2023-06-04T20:23:27.288Z,14.20
2023-06-04T20:25:55.098Z,14.15
2023-06-04T20:28:22.888Z,13.63
2023-06-04T20:30:50.724Z,13.86
2023-06-04T20:33:18.671Z,13.64
2023-06-04T20:35:46.624Z,14.14
2023-06-04T20:38:14.583Z,13.89
2023-06-04T20:40:43.735Z,14.04
2023-06-04T20:43:11.716Z,14.22
2023-06-04T20:45:39.528Z,13.76
2023-06-04T20:48:07.467Z,12.29
2023-06-04T20:50:35.522Z,12.08
2023-06-04T20:53:03.481Z,12.39
2023-06-04T20:55:31.340Z,11.95
2023-06-04T20:58:00.562Z,11.57
2023-06-04T21:00:30.503Z,12.43
2023-06-04T21:02:58.444Z,12.75
2023-06-04T21:05:26.290Z,12.72
2023-06-04T21:07:54.111Z,12.62
2023-06-04T21:10:21.915Z,12.75
2023-06-04T21:12:49.794Z,12.68
2023-06-04T21:15:19.054Z,12.27
2023-06-04T21:17:46.904Z,12.18
2023-06-04T21:20:14.723Z,12.21
2023-06-04T21:22:42.569Z,11.28
2023-06-04T21:25:10.942Z,11.46
2023-06-04T21:27:38.782Z,11.10
2023-06-04T21:30:07.134Z,11.12
2023-06-04T21:32:36.484Z,11.83
2023-06-04T21:35:04.421Z,11.16
2023-06-04T21:37:32.208Z,10.99
2023-06-04T21:39:59.971Z,11.26
2023-06-04T21:42:27.781Z,10.94
2023-06-04T21:44:56.420Z,11.44
2023-06-04T21:47:24.694Z,11.37
2023-06-04T21:49:53.972Z,11.64
2023-06-04T21:52:25.970Z,11.71
2023-06-04T21:54:54.118Z,11.32
2023-06-04T21:57:21.885Z,11.66
2023-06-04T21:59:49.714Z,11.05
2023-06-04T22:02:17.557Z,11.35
2023-06-04T22:04:45.460Z,11.30
2023-06-04T22:07:14.683Z,11.18
2023-06-04T22:09:42.530Z,11.02
2023-06-04T22:12:10.533Z,9.82
2023-06-04T22:14:39.016Z,9.56
2023-06-04T22:17:06.914Z,10.06
2023-06-04T22:19:34.936Z,9.37
2023-06-04T22:22:02.739Z,9.69
2023-06-04T22:24:31.960Z,9.97
2023-06-04T22:26:59.684Z,9.84
2023-06-04T22:29:27.549Z,9.96
2023-06-04T22:31:55.526Z,10.02
2023-06-04T22:34:23.415Z,10.59
2023-06-04T22:36:51.275Z,10.74
2023-06-04T22:39:19.213Z,10.81
2023-06-04T22:41:48.513Z,11.31
2023-06-04T22:44:16.328Z,11.70
2023-06-04T22:46:44.296Z,11.51
2023-06-04T22:49:14.132Z,11.75
2023-06-04T22:51:43.534Z,11.83
2023-06-04T22:54:11.305Z,12.01
2023-06-04T22:56:39.124Z,11.79
2023-06-04T22:59:08.355Z,11.73
2023-06-04T23:01:36.239Z,12.00
2023-06-04T23:04:04.270Z,12.01
2023-06-04T23:06:32.236Z,12.20
2023-06-04T23:09:00.269Z,12.03
2023-06-04T23:11:28.049Z,12.09
2023-06-04T23:13:55.784Z,12.08
2023-06-04T23:16:25.113Z,11.67
2023-06-04T23:18:52.936Z,11.67
2023-06-04T23:21:20.832Z,11.52
2023-06-04T23:23:48.716Z,11.23
2023-06-04T23:26:16.578Z,11.35
2023-06-04T23:28:44.428Z,11.26
2023-06-04T23:31:12.270Z,11.34
2023-06-04T23:33:41.708Z,11.32
2023-06-04T23:36:09.548Z,10.36
2023-06-04T23:38:37.405Z,9.96
2023-06-04T23:41:05.206Z,10.10
2023-06-04T23:43:33.303Z,10.42
2023-06-04T23:46:01.186Z,10.30
2023-06-04T23:48:29.395Z,10.23
2023-06-04T23:50:58.603Z,10.05
2023-06-04T23:53:27.137Z,10.08
2023-06-04T23:55:54.922Z,10.07
2023-06-04T23:58:22.735Z,10.29
